Time;durP1;ratioP1;P1;durP2;ratioP2;P2;SDS_P1;SDS_P2;PMS_P1;PMS_P2;Temp;Humidity;BMP_temperature;BMP_pressure;BME280_temperature;BME280_humidity;BME280_pressure;Samples;Min_cycle;Max_cycle;Signal;HPM_P1;HPM_P2
2021/09/13 00:02:30;;;;;;;7.03;6.33;;;;;;;16.14;100.00;96308.28;5091314;28;20381;-77
2021/09/13 00:04:57;;;;;;;6.33;5.73;;;;;;;16.28;100.00;96306.56;5091707;28;20776;-76
2021/09/13 00:07:24;;;;;;;7.07;6.43;;;;;;;16.31;100.00;96300.88;5091477;28;20670;-77
2021/09/13 00:09:52;;;;;;;9.00;6.30;;;;;;;16.04;100.00;96303.34;5091995;28;20206;-77
2021/09/13 00:12:19;;;;;;;7.10;6.40;;;;;;;16.17;100.00;96302.63;5091302;28;20953;-76
2021/09/13 00:14:47;;;;;;;6.80;6.17;;;;;;;16.10;100.00;96296.44;5091881;28;20638;-77
2021/09/13 00:17:16;;;;;;;7.87;6.70;;;;;;;16.00;100.00;96298.59;5091803;28;20193;-77
2021/09/13 00:19:43;;;;;;;8.40;6.50;;;;;;;16.10;100.00;96297.25;5091754;28;20650;-77
2021/09/13 00:22:11;;;;;;;7.50;6.80;;;;;;;15.80;100.00;96299.28;5091235;28;20211;-76
2021/09/13 00:24:38;;;;;;;6.97;6.17;;;;;;;15.64;100.00;96289.72;5091302;28;20226;-77
2021/09/13 00:27:05;;;;;;;9.17;5.87;;;;;;;15.74;100.00;96285.97;5091518;28;20201;-77
2021/09/13 00:29:33;;;;;;;6.67;5.97;;;;;;;15.65;100.00;96298.47;5091314;28;20197;-76
2021/09/13 00:32:00;;;;;;;8.50;6.67;;;;;;;15.96;100.00;96298.16;5091227;28;20196;-78
2021/09/13 00:34:29;;;;;;;12.50;7.03;;;;;;;15.94;100.00;96292.25;5091286;28;20203;-77
2021/09/13 00:36:56;;;;;;;6.67;6.07;;;;;;;15.98;100.00;96290.84;5091717;28;20208;-77
2021/09/13 00:39:23;;;;;;;11.50;5.73;;;;;;;15.85;100.00;96288.91;5094731;28;20326;-77
2021/09/13 00:41:51;;;;;;;7.67;5.73;;;;;;;15.74;100.00;96289.44;5094738;28;20196;-77
2021/09/13 00:44:18;;;;;;;6.90;5.83;;;;;;;15.81;100.00;96289.47;5095041;28;20627;-77
2021/09/13 00:46:45;;;;;;;6.77;5.90;;;;;;;15.80;100.00;96290.50;5094900;28;20287;-76
2021/09/13 00:49:12;;;;;;;6.10;5.50;;;;;;;15.76;100.00;96278.63;5094520;28;20203;-76
2021/09/13 00:51:41;;;;;;;13.77;8.23;;;;;;;15.71;100.00;96275.75;5094707;28;20200;-77
2021/09/13 00:54:09;;;;;;;7.53;5.67;;;;;;;15.70;100.00;96277.56;5094683;28;20212;-77
2021/09/13 00:56:36;;;;;;;9.73;7.27;;;;;;;15.73;100.00;96279.03;5094975;28;20280;-77
2021/09/13 00:59:03;;;;;;;7.40;5.80;;;;;;;15.73;100.00;96273.72;5094231;28;20201;-76
2021/09/13 01:01:31;;;;;;;11.70;8.00;;;;;;;15.66;100.00;96271.84;5094968;28;20204;-77
2021/09/13 01:03:58;;;;;;;6.80;6.10;;;;;;;15.29;100.00;96278.16;5094327;28;20220;-77
2021/09/13 01:06:25;;;;;;;8.17;5.90;;;;;;;15.45;100.00;96272.63;5094861;28;20224;-77
2021/09/13 01:08:54;;;;;;;11.17;6.43;;;;;;;15.28;100.00;96281.81;5094448;28;20204;-76
2021/09/13 01:11:21;;;;;;;7.30;6.17;;;;;;;15.50;100.00;96273.88;5094440;28;20688;-76
2021/09/13 01:13:49;;;;;;;8.10;5.97;;;;;;;15.62;100.00;96277.66;5094287;28;20204;-76
2021/09/13 01:16:16;;;;;;;7.90;6.47;;;;;;;15.45;100.00;96283.22;5094366;28;20203;-76
2021/09/13 01:18:43;;;;;;;9.23;6.70;;;;;;;15.33;100.00;96289.19;5094151;28;20204;-77
2021/09/13 01:21:10;;;;;;;7.47;5.93;;;;;;;15.38;100.00;96284.97;5094028;28;20238;-77
2021/09/13 01:23:39;;;;;;;8.50;7.10;;;;;;;15.42;100.00;96280.94;5094382;28;20275;-77
2021/09/13 01:26:07;;;;;;;7.20;6.47;;;;;;;15.23;100.00;96284.19;5094077;28;20242;-77
2021/09/13 01:28:34;;;;;;;9.47;6.20;;;;;;;15.35;100.00;96282.72;5094035;28;20200;-76
2021/09/13 01:31:02;;;;;;;12.97;6.40;;;;;;;15.31;100.00;96281.44;5093962;28;20627;-76
2021/09/13 01:33:29;;;;;;;8.07;6.77;;;;;;;15.42;100.00;96283.59;5094164;28;20202;-77
2021/09/13 01:35:56;;;;;;;8.77;6.03;;;;;;;15.45;100.00;96280.56;5094082;28;20208;-76
2021/09/13 01:38:26;;;;;;;13.77;7.23;;;;;;;15.53;100.00;96279.63;5093741;28;20197;-76
2021/09/13 01:40:55;;;;;;;9.93;7.43;;;;;;;15.44;100.00;96283.41;5093992;28;20183;-77
2021/09/13 01:43:22;;;;;;;7.47;6.60;;;;;;;15.33;100.00;96286.53;5093572;28;20203;-76
2021/09/13 01:45:50;;;;;;;6.83;6.23;;;;;;;15.51;100.00;96288.75;5094088;28;20230;-77
2021/09/13 01:48:17;;;;;;;9.13;6.57;;;;;;;15.52;100.00;96293.88;5090352;28;20200;-76
2021/09/13 01:50:44;;;;;;;9.30;5.70;;;;;;;15.50;100.00;96295.88;5093497;28;20199;-77
2021/09/13 01:53:12;;;;;;;8.27;6.57;;;;;;;15.29;100.00;96290.59;5093349;28;20206;-76
2021/09/13 01:55:39;;;;;;;8.37;6.10;;;;;;;15.15;100.00;96289.63;5093772;28;20195;-77
2021/09/13 01:58:07;;;;;;;7.70;6.17;;;;;;;15.31;100.00;96293.84;5093173;28;20200;-76
2021/09/13 02:00:34;;;;;;;8.50;5.93;;;;;;;15.23;100.00;96292.94;5093608;28;20207;-77
2021/09/13 02:03:02;;;;;;;11.80;6.37;;;;;;;15.36;100.00;96289.63;5093211;28;20207;-77
2021/09/13 02:05:29;;;;;;;8.63;6.87;;;;;;;14.98;100.00;96291.66;5093293;28;20220;-76
2021/09/13 02:07:56;;;;;;;7.73;6.40;;;;;;;15.16;100.00;96285.94;5092962;28;20288;-76
2021/09/13 02:10:23;;;;;;;10.77;6.03;;;;;;;14.99;100.00;96288.81;5093463;28;20198;-76
2021/09/13 02:12:50;;;;;;;8.90;6.70;;;;;;;14.81;100.00;96285.75;5093062;28;20333;-77
2021/09/13 02:15:19;;;;;;;8.53;6.30;;;;;;;14.76;100.00;96288.13;5093087;28;20196;-76
2021/09/13 02:17:46;;;;;;;7.83;6.23;;;;;;;14.57;100.00;96289.50;5093096;28;20279;-76
2021/09/13 02:20:14;;;;;;;8.53;6.63;;;;;;;14.70;100.00;96284.38;5092753;28;20201;-76
2021/09/13 02:22:42;;;;;;;8.60;6.07;;;;;;;14.53;100.00;96287.41;5092745;28;20204;-76
2021/09/13 02:25:10;;;;;;;7.77;6.23;;;;;;;14.64;100.00;96277.19;5092815;28;20224;-76
2021/09/13 02:27:37;;;;;;;7.60;6.80;;;;;;;14.68;100.00;96285.56;5092946;28;20200;-76
2021/09/13 02:30:05;;;;;;;6.97;6.20;;;;;;;14.63;100.00;96278.19;5092812;28;20309;-76
2021/09/13 02:32:34;;;;;;;8.10;6.27;;;;;;;14.98;100.00;96284.53;5092629;28;20589;-76
2021/09/13 02:35:04;;;;;;;6.83;6.13;;;;;;;14.87;100.00;96278.91;5092803;28;20192;-76
2021/09/13 02:37:33;;;;;;;6.90;6.20;;;;;;;15.05;100.00;96281.16;5092460;28;20277;-76
2021/09/13 02:40:00;;;;;;;7.80;6.03;;;;;;;15.14;100.00;96280.84;5092763;28;20193;-76
2021/09/13 02:42:27;;;;;;;9.53;7.67;;;;;;;15.37;100.00;96288.63;5092629;28;20604;-76
2021/09/13 02:44:55;;;;;;;7.80;7.00;;;;;;;15.74;100.00;96296.56;5092900;28;20224;-76
2021/09/13 02:47:22;;;;;;;9.10;6.67;;;;;;;15.98;100.00;96287.38;5092605;28;20192;-76
2021/09/13 02:49:51;;;;;;;8.03;6.57;;;;;;;16.09;100.00;96300.13;5092605;28;20683;-77
2021/09/13 02:52:18;;;;;;;8.07;6.23;;;;;;;16.20;100.00;96291.63;5092217;28;20197;-77
2021/09/13 02:54:45;;;;;;;7.37;6.47;;;;;;;16.21;100.00;96293.28;5092506;28;20203;-76
2021/09/13 02:57:12;;;;;;;7.97;6.70;;;;;;;16.23;100.00;96288.59;5092490;28;20283;-77
2021/09/13 02:59:40;;;;;;;7.73;6.60;;;;;;;15.89;100.00;96292.81;5092441;28;20223;-77
2021/09/13 03:02:07;;;;;;;7.07;5.97;;;;;;;15.71;100.00;96278.38;5091995;28;20196;-76
2021/09/13 03:04:34;;;;;;;9.43;7.43;;;;;;;15.44;100.00;96275.44;5092222;28;20226;-77
2021/09/13 03:07:04;;;;;;;8.80;6.40;;;;;;;15.54;100.00;96275.13;5092281;28;20205;-77
2021/09/13 03:09:31;;;;;;;8.70;7.50;;;;;;;15.39;100.00;96280.50;5092189;28;20199;-76
2021/09/13 03:11:58;;;;;;;7.87;7.07;;;;;;;15.05;100.00;96274.03;5092276;28;20585;-76
2021/09/13 03:14:26;;;;;;;7.93;6.67;;;;;;;14.96;100.00;96275.13;5092076;28;20274;-76
2021/09/13 03:16:55;;;;;;;7.03;6.43;;;;;;;15.03;100.00;96272.56;5092129;28;20196;-77
2021/09/13 03:19:22;;;;;;;7.77;6.27;;;;;;;14.90;100.00;96275.88;5092012;28;20206;-76
2021/09/13 03:21:49;;;;;;;8.77;6.63;;;;;;;14.86;100.00;96274.59;5091723;28;20200;-76
2021/09/13 03:24:18;;;;;;;10.90;7.23;;;;;;;14.90;100.00;96276.72;5092195;28;20201;-77
2021/09/13 03:26:45;;;;;;;8.83;7.93;;;;;;;14.98;100.00;96276.59;5091979;28;20215;-77
2021/09/13 03:29:13;;;;;;;8.73;6.90;;;;;;;15.22;100.00;96283.38;5091267;28;20202;-77
2021/09/13 03:31:41;;;;;;;7.97;7.03;;;;;;;15.28;100.00;96287.13;5091840;28;20321;-77
2021/09/13 03:34:09;;;;;;;9.33;6.87;;;;;;;14.93;100.00;96280.81;5092120;28;20198;-76
2021/09/13 03:36:38;;;;;;;8.67;7.10;;;;;;;14.77;100.00;96278.38;5092396;28;20550;-76
2021/09/13 03:39:06;;;;;;;7.53;6.67;;;;;;;15.08;100.00;96278.94;5091691;28;20192;-77
2021/09/13 03:41:35;;;;;;;9.77;6.70;;;;;;;14.79;100.00;96281.63;5091877;28;20196;-76
2021/09/13 03:44:03;;;;;;;6.93;6.33;;;;;;;14.64;100.00;96286.94;5091732;28;20579;-77
2021/09/13 03:46:30;;;;;;;7.70;6.93;;;;;;;14.73;100.00;96286.66;5091776;28;20743;-77
2021/09/13 03:48:57;;;;;;;9.80;7.23;;;;;;;14.62;100.00;96286.31;5091404;28;20568;-77
2021/09/13 03:51:24;;;;;;;9.77;7.30;;;;;;;14.51;100.00;96292.88;5092160;28;20206;-77
2021/09/13 03:53:52;;;;;;;7.47;6.67;;;;;;;14.40;100.00;96285.34;5091629;28;20196;-77
2021/09/13 03:56:19;;;;;;;8.87;7.13;;;;;;;14.49;100.00;96290.38;5091805;28;20188;-76
2021/09/13 03:58:47;;;;;;;10.37;7.07;;;;;;;14.32;100.00;96294.22;5088005;28;20204;-77
2021/09/13 04:01:15;;;;;;;9.30;7.33;;;;;;;14.39;100.00;96295.13;5092058;28;20232;-77
2021/09/13 04:03:45;;;;;;;9.30;7.40;;;;;;;14.48;100.00;96296.69;5091250;28;20188;-77
2021/09/13 04:06:19;;;;;;;7.87;6.87;;;;;;;14.78;100.00;96296.69;5091961;28;20247;-77
2021/09/13 04:09:04;;;;;;;8.77;7.63;;;;;;;14.96;100.00;96297.16;5091761;28;20317;-77
2021/09/13 04:11:39;;;;;;;9.87;7.83;;;;;;;15.31;100.00;96302.63;5092035;28;20191;-77
2021/09/13 04:14:07;;;;;;;11.83;7.43;;;;;;;15.59;100.00;96309.84;5094514;28;20649;-76
2021/09/13 04:16:34;;;;;;;7.60;6.77;;;;;;;15.83;100.00;96312.16;5095835;28;20280;-77
2021/09/13 04:19:02;;;;;;;9.77;7.27;;;;;;;16.03;100.00;96322.09;5095101;28;20204;-77
2021/09/13 04:21:29;;;;;;;7.47;6.77;;;;;;;16.09;100.00;96319.50;5095372;28;20624;-77
2021/09/13 04:23:56;;;;;;;9.20;7.13;;;;;;;16.34;100.00;96330.47;5095289;28;20287;-77
2021/09/13 04:26:23;;;;;;;8.83;7.20;;;;;;;16.47;100.00;96328.94;5095242;28;20239;-77
2021/09/13 04:28:50;;;;;;;12.60;7.80;;;;;;;16.56;100.00;96331.25;5095194;28;20197;-76
2021/09/13 04:31:20;;;;;;;8.53;6.47;;;;;;;16.67;100.00;96335.22;5095134;28;20319;-76
2021/09/13 04:33:47;;;;;;;12.37;7.50;;;;;;;16.72;100.00;96329.31;5094776;28;20202;-76
2021/09/13 04:36:14;;;;;;;13.80;8.07;;;;;;;16.72;100.00;96335.44;5095132;28;20581;-77
2021/09/13 04:38:41;;;;;;;10.63;7.30;;;;;;;16.81;100.00;96331.66;5095217;28;20201;-77
2021/09/13 04:41:08;;;;;;;17.17;7.90;;;;;;;16.84;100.00;96331.25;5094979;28;20204;-77
2021/09/13 04:43:36;;;;;;;10.90;7.57;;;;;;;16.87;100.00;96341.47;5094900;28;20224;-77
2021/09/13 04:46:03;;;;;;;8.40;7.33;;;;;;;16.97;100.00;96332.31;5094877;28;20223;-77
2021/09/13 04:48:32;;;;;;;8.87;7.90;;;;;;;16.97;100.00;96340.28;5094757;28;20201;-77
2021/09/13 04:50:59;;;;;;;9.47;7.27;;;;;;;16.94;100.00;96340.69;5094960;28;20202;-77
2021/09/13 04:53:26;;;;;;;8.27;6.93;;;;;;;17.02;100.00;96340.53;5094572;28;20207;-77
2021/09/13 04:55:53;;;;;;;10.00;7.97;;;;;;;17.06;100.00;96341.78;5094627;28;20255;-77
2021/09/13 04:58:20;;;;;;;14.00;7.80;;;;;;;17.05;100.00;96345.44;5094773;28;20274;-77
2021/09/13 05:00:48;;;;;;;9.30;8.30;;;;;;;17.08;100.00;96337.09;5095096;28;20277;-77
2021/09/13 05:03:15;;;;;;;8.13;7.33;;;;;;;17.04;100.00;96338.47;5094537;28;20286;-77
2021/09/13 05:05:44;;;;;;;10.23;7.60;;;;;;;17.13;100.00;96339.97;5094897;28;20315;-77
2021/09/13 05:08:11;;;;;;;8.93;7.60;;;;;;;17.12;100.00;96348.97;5094691;28;20191;-77
2021/09/13 05:10:38;;;;;;;10.53;7.67;;;;;;;17.05;100.00;96348.09;5094609;28;20204;-77
2021/09/13 05:13:06;;;;;;;11.07;7.67;;;;;;;17.07;100.00;96338.09;5094021;28;20684;-77
2021/09/13 05:15:33;;;;;;;11.83;7.23;;;;;;;17.14;100.00;96341.59;5094478;28;20251;-77
2021/09/13 05:18:01;;;;;;;14.97;8.10;;;;;;;17.21;100.00;96345.09;5094778;28;20295;-77
2021/09/13 05:20:28;;;;;;;14.57;8.83;;;;;;;17.22;100.00;96336.13;5094431;28;20202;-77
2021/09/13 05:22:56;;;;;;;8.50;7.70;;;;;;;17.51;100.00;96344.81;5094133;28;20200;-77
2021/09/13 05:25:24;;;;;;;12.70;7.07;;;;;;;17.70;100.00;96346.69;5093930;28;20230;-77
2021/09/13 05:27:51;;;;;;;11.33;7.60;;;;;;;17.95;100.00;96346.97;5094041;28;20679;-77
2021/09/13 05:30:18;;;;;;;10.23;8.03;;;;;;;18.12;100.00;96351.91;5093969;28;20238;-77
2021/09/13 05:32:46;;;;;;;8.20;7.23;;;;;;;18.38;100.00;96357.22;5094010;28;20203;-77
2021/09/13 05:35:13;;;;;;;10.73;8.13;;;;;;;18.53;100.00;96362.31;5093844;28;20196;-77
2021/09/13 05:37:40;;;;;;;12.53;7.50;;;;;;;18.64;100.00;96358.22;5093795;28;20581;-77
2021/09/13 05:40:10;;;;;;;12.57;7.70;;;;;;;18.67;100.00;96369.28;5093955;28;20192;-77
2021/09/13 05:42:37;;;;;;;10.77;7.43;;;;;;;18.68;100.00;96370.91;5094367;28;20215;-77
2021/09/13 05:45:06;;;;;;;10.33;8.43;;;;;;;18.73;100.00;96372.97;5093851;28;20672;-77
2021/09/13 05:47:33;;;;;;;9.53;8.23;;;;;;;18.79;100.00;96374.00;5093325;28;20287;-77
2021/09/13 05:50:00;;;;;;;15.73;8.17;;;;;;;18.77;100.00;96380.38;5094122;28;20215;-77
2021/09/13 05:52:28;;;;;;;8.63;7.67;;;;;;;18.60;100.00;96379.13;5093553;28;20627;-78
2021/09/13 05:54:55;;;;;;;11.33;7.57;;;;;;;18.56;100.00;96380.53;5093398;28;20640;-77
2021/09/13 05:57:24;;;;;;;13.03;7.87;;;;;;;18.60;100.00;96383.59;5093482;28;20202;-77
2021/09/13 05:59:51;;;;;;;9.27;7.33;;;;;;;18.69;100.00;96383.19;5093541;28;20200;-77
2021/09/13 06:02:18;;;;;;;10.00;7.90;;;;;;;18.79;100.00;96382.81;5093414;28;20573;-77
2021/09/13 06:04:46;;;;;;;10.67;8.97;;;;;;;18.85;100.00;96373.19;5093277;28;20207;-77
2021/09/13 06:07:13;;;;;;;9.13;7.67;;;;;;;19.07;100.00;96381.72;5093535;28;20307;-77
2021/09/13 06:09:40;;;;;;;9.83;8.90;;;;;;;19.05;100.00;96376.63;5093232;28;20207;-78
2021/09/13 06:12:09;;;;;;;12.97;8.50;;;;;;;19.20;100.00;96377.19;5093327;28;20193;-78
2021/09/13 06:14:38;;;;;;;8.60;7.50;;;;;;;19.36;100.00;96380.38;5092838;28;20261;-78
2021/09/13 06:17:05;;;;;;;11.37;8.33;;;;;;;19.46;100.00;96389.56;5093563;28;20222;-77
2021/09/13 06:19:32;;;;;;;11.90;7.97;;;;;;;19.55;100.00;96386.69;5093099;28;20192;-78
2021/09/13 06:21:59;;;;;;;10.67;7.83;;;;;;;19.69;100.00;96386.44;5093202;28;20196;-78
2021/09/13 06:24:26;;;;;;;8.57;7.73;;;;;;;19.81;100.00;96391.94;5092924;28;20198;-77
2021/09/13 06:26:54;;;;;;;10.63;7.87;;;;;;;19.99;100.00;96399.22;5093302;28;20220;-77
2021/09/13 06:29:21;;;;;;;10.60;8.83;;;;;;;20.19;100.00;96394.56;5093206;28;20218;-78
2021/09/13 06:31:50;;;;;;;10.37;8.93;;;;;;;20.42;100.00;96393.97;5092764;28;20196;-77
2021/09/13 06:34:18;;;;;;;9.20;8.30;;;;;;;20.54;100.00;96395.94;5092865;28;20196;-77
2021/09/13 06:36:46;;;;;;;9.23;7.83;;;;;;;20.66;100.00;96404.91;5092202;28;20200;-78
2021/09/13 06:39:13;;;;;;;8.73;7.90;;;;;;;20.79;100.00;96401.31;5092550;28;20204;-78
2021/09/13 06:41:40;;;;;;;10.00;7.80;;;;;;;20.86;100.00;96399.38;5092861;28;20197;-78
2021/09/13 06:44:08;;;;;;;9.63;8.43;;;;;;;20.93;100.00;96399.31;5092675;28;20714;-78
2021/09/13 06:46:42;;;;;;;11.97;7.07;;;;;;;21.06;100.00;96410.69;5092608;28;20220;-78
2021/09/13 06:49:12;;;;;;;10.30;7.47;;;;;;;21.17;100.00;96411.00;5092399;28;20184;-78
2021/09/13 06:51:39;;;;;;;9.77;7.93;;;;;;;21.29;100.00;96411.88;5093037;28;20203;-78
2021/09/13 06:54:07;;;;;;;11.30;8.23;;;;;;;21.40;100.00;96405.81;5092739;28;20192;-78
2021/09/13 06:56:34;;;;;;;10.23;7.50;;;;;;;21.41;100.00;96407.47;5092539;28;20288;-80
2021/09/13 06:59:01;;;;;;;12.03;7.33;;;;;;;21.58;100.00;96413.84;5092279;28;20600;-81
2021/09/13 07:01:32;;;;;;;8.00;7.17;;;;;;;21.70;100.00;96407.75;5092400;28;20198;-78
2021/09/13 07:04:01;;;;;;;11.47;7.40;;;;;;;21.87;100.00;96406.06;5092365;28;20191;-78
2021/09/13 07:06:30;;;;;;;9.20;7.40;;;;;;;22.01;100.00;96410.19;5092612;28;20227;-78
2021/09/13 07:08:57;;;;;;;8.47;7.23;;;;;;;22.15;100.00;96412.72;5092142;28;20192;-78
2021/09/13 07:11:25;;;;;;;14.33;8.13;;;;;;;22.42;100.00;96419.31;5093051;28;20206;-78
2021/09/13 07:13:52;;;;;;;10.90;7.20;;;;;;;22.60;100.00;96422.97;5092307;28;20207;-78
2021/09/13 07:16:20;;;;;;;8.40;7.50;;;;;;;22.52;100.00;96424.13;5092283;28;20665;-78
2021/09/13 07:18:48;;;;;;;11.03;7.73;;;;;;;22.75;100.00;96418.78;5092280;28;20280;-79
2021/09/13 07:21:16;;;;;;;8.93;7.40;;;;;;;22.78;100.00;96420.19;5092173;28;20196;-78
2021/09/13 07:23:44;;;;;;;10.07;7.60;;;;;;;22.94;100.00;96416.84;5092271;28;20382;-78
2021/09/13 07:26:11;;;;;;;13.50;8.37;;;;;;;23.12;100.00;96421.25;5092403;28;20307;-78
2021/09/13 07:28:39;;;;;;;11.97;8.07;;;;;;;23.15;100.00;96422.66;5091772;28;20203;-79
2021/09/13 07:31:06;;;;;;;8.70;7.73;;;;;;;23.40;100.00;96425.91;5091995;28;20236;-78
2021/09/13 07:33:33;;;;;;;9.47;7.80;;;;;;;23.75;100.00;96427.72;5092055;28;20628;-78
2021/09/13 07:36:00;;;;;;;8.83;7.33;;;;;;;23.68;100.00;96437.78;5092108;28;20583;-78
2021/09/13 07:38:28;;;;;;;8.67;7.67;;;;;;;23.55;100.00;96427.25;5091938;28;20200;-78
2021/09/13 07:40:56;;;;;;;7.67;6.97;;;;;;;23.46;100.00;96429.50;5092356;28;20196;-78
2021/09/13 07:43:24;;;;;;;9.53;7.43;;;;;;;23.52;100.00;96427.72;5091864;28;20295;-78
2021/09/13 07:45:51;;;;;;;12.37;7.77;;;;;;;24.01;100.00;96428.22;5091905;28;20202;-78
2021/09/13 07:48:19;;;;;;;8.67;7.77;;;;;;;24.29;100.00;96428.22;5095132;28;20211;-78
2021/09/13 07:50:47;;;;;;;11.23;8.20;;;;;;;24.56;100.00;96441.88;5096185;28;20265;-78
2021/09/13 07:53:14;;;;;;;9.47;8.50;;;;;;;24.35;100.00;96445.22;5095940;28;20680;-78
2021/09/13 07:55:41;;;;;;;8.90;7.87;;;;;;;24.60;100.00;96432.25;5096293;28;20192;-78
2021/09/13 07:58:10;;;;;;;8.47;7.67;;;;;;;24.93;100.00;96436.00;5096038;28;20195;-79
2021/09/13 08:00:37;;;;;;;9.00;8.20;;;;;;;24.95;100.00;96438.47;5096348;28;20259;-80
2021/09/13 08:03:04;;;;;;;14.10;12.00;;;;;;;24.97;100.00;96437.13;5095853;28;20661;-80
2021/09/13 08:05:32;;;;;;;8.60;7.80;;;;;;;24.94;100.00;96439.50;5095848;28;20202;-80
2021/09/13 08:07:59;;;;;;;11.37;8.93;;;;;;;25.32;100.00;96444.13;5095937;28;20219;-80
2021/09/13 08:10:26;;;;;;;12.40;9.83;;;;;;;25.73;100.00;96437.41;5095810;28;20269;-80
2021/09/13 08:12:53;;;;;;;8.87;7.90;;;;;;;26.06;100.00;96441.88;5095521;28;20242;-80
2021/09/13 08:15:23;;;;;;;9.07;8.17;;;;;;;25.65;100.00;96434.34;5095694;28;20574;-81
2021/09/13 08:17:50;;;;;;;10.47;7.97;;;;;;;25.67;100.00;96437.59;5095262;28;20228;-80
2021/09/13 08:20:18;;;;;;;9.60;8.43;;;;;;;25.87;100.00;96443.25;5095835;28;20199;-80
2021/09/13 08:22:46;;;;;;;8.77;7.87;;;;;;;25.97;100.00;96442.56;5095292;28;20208;-81
2021/09/13 08:25:13;;;;;;;10.40;7.97;;;;;;;25.97;100.00;96446.06;5095393;28;20193;-80
2021/09/13 08:27:40;;;;;;;13.93;8.20;;;;;;;25.96;100.00;96443.63;5095277;28;20664;-80
2021/09/13 08:30:08;;;;;;;12.13;8.10;;;;;;;26.42;100.00;96433.34;5095315;28;20242;-80
2021/09/13 08:32:37;;;;;;;8.47;7.77;;;;;;;26.16;100.00;96443.06;5095132;28;20283;-80
2021/09/13 08:35:05;;;;;;;8.93;7.77;;;;;;;26.41;100.00;96442.50;5094997;28;20590;-80
2021/09/13 08:37:32;;;;;;;10.10;7.90;;;;;;;26.50;100.00;96441.81;5095027;28;20200;-80
2021/09/13 08:40:00;;;;;;;9.83;8.13;;;;;;;26.64;100.00;96453.00;5095224;28;20189;-80
2021/09/13 08:42:28;;;;;;;8.97;7.37;;;;;;;26.83;100.00;96447.22;5095001;28;20192;-81
2021/09/13 08:44:58;;;;;;;11.07;8.70;;;;;;;26.83;100.00;96447.22;5095145;28;20280;-81
2021/09/13 08:47:32;;;;;;;9.15;8.05;;;;;;;26.98;100.00;96441.91;5094879;28;20252;-81
2021/09/13 08:50:09;;;;;;;10.77;7.93;;;;;;;26.34;100.00;96442.69;5095080;28;20194;-80
2021/09/13 08:52:37;;;;;;;8.70;7.90;;;;;;;26.83;100.00;96449.91;5094837;28;20235;-80
2021/09/13 08:55:04;;;;;;;15.03;8.60;;;;;;;26.80;100.00;96440.44;5094593;28;20200;-80
2021/09/13 08:57:33;;;;;;;10.20;7.50;;;;;;;27.17;100.00;96435.09;5094996;28;20275;-80
2021/09/13 09:00:01;;;;;;;17.73;7.88;;;;;;;27.98;100.00;96433.88;5094023;28;20286;-81
2021/09/13 09:02:31;;;;;;;10.00;8.23;;;;;;;28.14;100.00;96437.44;5094940;28;20220;-80
2021/09/13 09:05:01;;;;;;;10.18;7.95;;;;;;;28.60;100.00;96437.53;5094600;28;20222;-81
2021/09/13 09:07:48;;;;;;;10.60;7.60;;;;;;;27.65;100.00;96430.50;5094440;28;20302;-80
2021/09/13 09:10:18;;;;;;;10.35;7.35;;;;;;;27.70;100.00;96438.59;5094626;28;20251;-80
2021/09/13 09:13:01;;;;;;;12.50;7.97;;;;;;;27.08;100.00;96427.69;5094679;28;20207;-80
2021/09/13 09:15:29;;;;;;;11.63;7.90;;;;;;;27.97;100.00;96432.25;5094265;28;20642;-81
2021/09/13 09:17:59;;;;;;;7.95;7.22;;;;;;;28.17;100.00;96437.72;5094212;28;20685;-81
2021/09/13 09:20:27;;;;;;;10.45;8.15;;;;;;;27.61;100.00;96431.28;5094700;28;20250;-80
2021/09/13 09:23:02;;;;;;;8.30;7.50;;;;;;;28.17;100.00;96432.31;5094453;28;20200;-81
2021/09/13 09:25:32;;;;;;;8.15;7.03;;;;;;;28.64;100.00;96435.91;5094125;28;20198;-81
2021/09/13 09:28:01;;;;;;;9.32;8.18;;;;;;;28.58;100.00;96427.00;5094283;28;20220;-82
2021/09/13 09:30:38;;;;;;;11.60;8.82;;;;;;;28.19;100.00;96434.75;5093965;28;20310;-81
2021/09/13 09:33:07;;;;;;;9.82;8.77;;;;;;;28.06;100.00;96430.69;5094048;28;20215;-80
2021/09/13 09:35:46;;;;;;;9.80;8.32;;;;;;;28.11;100.00;96430.69;5093882;28;20677;-80
2021/09/13 09:38:37;;;;;;;9.23;8.38;;;;;;;28.31;100.00;96437.22;5093875;28;20186;-80
2021/09/13 09:41:07;;;;;;;9.95;7.70;;;;;;;27.73;100.00;96439.97;5094047;28;20239;-80
2021/09/13 09:43:51;;;;;;;13.20;7.85;;;;;;;27.68;100.00;96424.56;5093897;28;20204;-80
2021/09/13 09:46:18;;;;;;;9.02;7.45;;;;;;;27.49;100.00;96429.59;5093963;28;20219;-80
2021/09/13 09:48:47;;;;;;;8.85;7.95;;;;;;;27.57;100.00;96430.16;5093570;28;20262;-81
2021/09/13 09:51:29;;;;;;;8.70;7.55;;;;;;;27.38;100.00;96435.22;5093765;28;20204;-81
2021/09/13 09:53:58;;;;;;;9.93;7.82;;;;;;;27.42;100.00;96431.72;5093289;28;20296;-80
2021/09/13 09:56:27;;;;;;;8.60;7.72;;;;;;;27.68;100.00;96432.66;5093598;28;20231;-80
2021/09/13 09:58:59;;;;;;;10.40;7.10;;;;;;;28.06;100.00;96435.28;5093810;28;20286;-80
2021/09/13 10:01:33;;;;;;;10.57;8.35;;;;;;;28.11;100.00;96429.88;5093711;28;20227;-81
2021/09/13 10:04:21;;;;;;;9.68;8.68;;;;;;;27.47;100.00;96428.25;5093341;28;20235;-80
2021/09/13 10:06:51;;;;;;;10.65;8.10;;;;;;;28.29;100.00;96433.97;5093752;28;20242;-81
2021/09/13 10:09:21;;;;;;;8.13;7.35;;;;;;;28.61;100.00;96426.47;5093266;28;20733;-81
2021/09/13 10:11:50;;;;;;;14.15;12.63;;;;;;;28.64;100.00;96431.31;5092194;28;20194;-80
2021/09/13 10:14:18;;;;;;;11.30;10.30;;;;;;;28.30;100.00;96424.75;5093139;28;20196;-81
2021/09/13 10:16:47;;;;;;;12.48;10.38;;;;;;;28.04;100.00;96429.31;5093324;28;20203;-80
2021/09/13 10:19:14;;;;;;;9.93;6.75;;;;;;;28.38;100.00;96421.56;5093416;28;20228;-81
2021/09/13 10:21:42;;;;;;;7.18;6.57;;;;;;;28.66;100.00;96431.88;5092966;28;20283;-81
2021/09/13 10:24:14;;;;;;;7.35;6.65;;;;;;;29.11;100.00;96434.88;5092929;28;20276;-81
2021/09/13 10:26:47;;;;;;;6.85;6.15;;;;;;;28.98;100.00;96433.50;5093410;28;20216;-81
2021/09/13 10:29:25;;;;;;;10.27;7.15;;;;;;;28.36;100.00;96431.81;5093026;28;20243;-81
2021/09/13 10:32:07;;;;;;;7.90;6.30;;;;;;;28.82;100.00;96431.88;5093105;28;20184;-81
2021/09/13 10:34:37;;;;;;;9.57;7.07;;;;;;;28.51;100.00;96425.63;5092798;28;20200;-80
2021/09/13 10:37:11;;;;;;;7.97;7.18;;;;;;;28.57;100.00;96432.66;5093226;28;20388;-80
2021/09/13 10:39:56;;;;;;;9.35;7.68;;;;;;;28.20;100.00;96422.88;5092811;28;20180;-80
2021/09/13 10:42:40;;;;;;;11.25;7.03;;;;;;;28.40;100.00;96425.66;5092562;28;20224;-80
2021/09/13 10:45:13;;;;;;;6.97;6.38;;;;;;;28.34;100.00;96415.88;5093157;28;20184;-80
2021/09/13 10:47:42;;;;;;;10.20;7.50;;;;;;;28.85;100.00;96424.03;5092533;28;20209;-81
2021/09/13 10:50:31;;;;;;;6.63;6.03;;;;;;;28.65;100.00;96419.44;5092453;28;20791;-81
2021/09/13 10:52:59;;;;;;;10.18;7.70;;;;;;;28.48;100.00;96427.00;5082176;28;20208;-81
2021/09/13 10:55:31;;;;;;;10.50;9.40;;;;;;;28.38;100.00;96416.16;5092926;28;20579;-81
2021/09/13 10:58:03;;;;;;;10.00;8.98;;;;;;;28.41;100.00;96418.34;5092444;28;20177;-81
2021/09/13 11:00:59;;;;;;;10.10;8.00;;;;;;;28.39;100.00;96418.59;5092618;28;20280;-80
2021/09/13 11:03:49;;;;;;;9.57;8.20;;;;;;;28.07;100.00;96412.56;5092110;28;20185;-80
2021/09/13 11:06:43;;;;;;;7.57;6.88;;;;;;;28.16;100.00;96419.06;5092439;28;20185;-81
2021/09/13 11:09:14;;;;;;;7.90;7.15;;;;;;;28.51;100.00;96412.94;5092430;28;20209;-81
2021/09/13 11:11:44;;;;;;;7.70;6.95;;;;;;;28.51;100.00;96414.81;5092556;28;20191;-81
2021/09/13 11:14:16;;;;;;;9.80;6.90;;;;;;;28.86;100.00;96409.44;5092096;28;20199;-81
2021/09/13 11:16:46;;;;;;;15.70;7.43;;;;;;;28.80;100.00;96404.28;5092653;28;20183;-81
2021/09/13 11:19:14;;;;;;;7.25;6.60;;;;;;;28.17;100.00;96402.59;5091755;28;20192;-81
2021/09/13 11:21:44;;;;;;;9.43;6.78;;;;;;;28.19;100.00;96400.41;5091862;28;20283;-81
2021/09/13 11:24:14;;;;;;;7.57;6.82;;;;;;;28.26;100.00;96402.06;5091961;28;20202;-81
2021/09/13 11:26:43;;;;;;;7.50;6.80;;;;;;;28.49;100.00;96395.38;5092173;28;20188;-80
2021/09/13 11:29:14;;;;;;;8.27;6.95;;;;;;;29.04;100.00;96407.28;5091586;28;20230;-81
2021/09/13 11:31:43;;;;;;;10.02;6.45;;;;;;;29.14;100.00;96408.06;5091970;28;20275;-81